Incline Village, Nevada
Current Conditions -  °F | °C
As of 10:45 AM on Friday 21 Nov 2014 (Local Time) from KTRK Reporting Station
Light Fog Light Fog  
Wind Chill: 32°   Ceiling: 200
Heat Index: 32°   Visibility: 3mi
Dew Point: 32°   Wind: 0mph
Humidity: 100%   Direction: NA
Pressure: 30.09"   Gusts: NA
Location:  39.25°N, 119.97°W
Report Text: KTRK 211845Z 00000KT 3SM BCFG BKN002 OVC008 00/00 A3009 RMK NOSPECI
Loading
Personal Weather Stations






























Interactive Weather Map New forecast layout! Learn more

10-Day Weather Forecast

Advertisements
Track Severe Weather on mobile